createdAt,value
2022-10-17T00:00:59.694Z,101328.91
2022-10-17T00:03:25.230Z,101324.19
2022-10-17T00:05:50.759Z,101322.25
2022-10-17T00:08:16.672Z,101323.38
2022-10-17T00:10:42.211Z,101321.41
2022-10-17T00:13:08.089Z,101321.41
2022-10-17T00:15:33.763Z,101318.66
2022-10-17T00:17:59.560Z,101312.28
2022-10-17T00:20:25.206Z,101304.00
2022-10-17T00:22:50.827Z,101302.06
2022-10-17T00:25:16.373Z,101305.94
2022-10-17T00:27:42.022Z,101302.06
2022-10-17T00:30:09.384Z,101306.75
2022-10-17T00:32:34.940Z,101304.81
2022-10-17T00:35:00.523Z,101305.94
2022-10-17T00:37:26.087Z,101313.94
2022-10-17T00:39:51.629Z,101314.25
2022-10-17T00:42:17.175Z,101317.00
2022-10-17T00:44:46.732Z,101314.25
2022-10-17T00:47:14.111Z,101316.72
2022-10-17T00:49:39.659Z,101306.75
2022-10-17T00:52:09.403Z,101304.81
2022-10-17T00:54:36.651Z,101306.75
2022-10-17T00:57:02.285Z,101300.09
2022-10-17T00:59:27.823Z,101303.16
2022-10-17T01:01:55.944Z,101304.00
2022-10-17T01:04:21.483Z,101302.88
2022-10-17T01:06:47.043Z,101308.41
2022-10-17T01:09:12.580Z,101296.50
2022-10-17T01:11:49.357Z,101300.41
2022-10-17T01:14:27.357Z,101313.13
2022-10-17T01:17:12.787Z,101311.47
2022-10-17T01:19:58.245Z,101305.66
2022-10-17T01:22:28.145Z,101304.81
2022-10-17T01:27:38.715Z,101313.13
2022-10-17T01:30:10.824Z,101310.34
2022-10-17T01:32:37.596Z,101314.25
2022-10-17T01:35:06.748Z,101304.00
2022-10-17T01:37:33.210Z,101313.13
2022-10-17T01:40:03.092Z,101309.53
2022-10-17T01:42:37.120Z,101309.28
2022-10-17T01:45:12.448Z,101310.34
2022-10-17T01:47:38.026Z,101301.78
2022-10-17T01:50:04.751Z,101304.81
2022-10-17T01:52:39.371Z,101289.91
2022-10-17T01:55:07.528Z,101282.69
2022-10-17T01:57:35.575Z,101289.03
2022-10-17T02:00:02.648Z,101282.41
2022-10-17T02:02:28.195Z,101286.28
2022-10-17T02:04:54.278Z,101282.69
2022-10-17T02:07:19.835Z,101277.16
2022-10-17T02:09:45.375Z,101277.16
2022-10-17T02:12:15.451Z,101275.22
2022-10-17T02:15:00.883Z,101273.28
2022-10-17T02:17:44.121Z,101268.84
2022-10-17T02:20:14.401Z,101277.97
2022-10-17T02:22:42.628Z,101275.22
2022-10-17T02:25:11.920Z,101277.97
2022-10-17T02:27:42.868Z,101280.75
2022-10-17T02:30:28.300Z,101280.75
2022-10-17T02:32:55.088Z,101277.16
2022-10-17T02:35:20.634Z,101278.81
2022-10-17T02:37:46.187Z,101270.53
2022-10-17T02:40:13.520Z,101266.06
2022-10-17T02:42:39.074Z,101273.28
2022-10-17T02:45:04.861Z,101273.28
2022-10-17T02:47:32.737Z,101284.34
2022-10-17T02:49:58.277Z,101282.41
2022-10-17T02:52:28.377Z,101277.16
2022-10-17T02:54:56.332Z,101284.34
2022-10-17T02:57:24.316Z,101274.38
2022-10-17T02:59:49.882Z,101287.13
2022-10-17T03:02:15.433Z,101281.59
2022-10-17T03:04:42.791Z,101288.22
2022-10-17T03:07:08.343Z,101284.63
2022-10-17T03:09:33.944Z,101287.13
2022-10-17T03:11:59.544Z,101279.91
2022-10-17T03:14:25.079Z,101278.81
2022-10-17T03:16:50.632Z,101287.13
2022-10-17T03:19:16.175Z,101270.53
2022-10-17T03:21:41.724Z,101270.53
2022-10-17T03:24:07.260Z,101270.53
2022-10-17T03:26:32.881Z,101270.53
2022-10-17T03:28:58.519Z,101275.22
2022-10-17T03:31:24.102Z,101280.75
2022-10-17T03:33:49.639Z,101278.81
2022-10-17T03:36:16.126Z,101281.59
2022-10-17T03:38:41.677Z,101290.72
2022-10-17T03:41:07.468Z,101298.19
2022-10-17T03:43:33.004Z,101290.72
2022-10-17T03:45:58.833Z,101299.84
2022-10-17T03:48:24.653Z,101298.19
2022-10-17T03:50:50.203Z,101303.72
2022-10-17T03:53:15.751Z,101298.19
2022-10-17T03:55:41.302Z,101306.50
2022-10-17T03:58:06.843Z,101307.31
2022-10-17T04:00:32.411Z,101309.28
2022-10-17T04:02:57.978Z,101312.03
2022-10-17T04:05:23.587Z,101317.56
2022-10-17T04:07:49.138Z,101316.44
2022-10-17T04:10:14.692Z,101326.69
2022-10-17T04:12:40.253Z,101327.53
2022-10-17T04:15:06.054Z,101329.47
2022-10-17T04:17:35.871Z,101318.41
2022-10-17T04:20:03.940Z,101322.25
2022-10-17T04:22:29.774Z,101323.94
2022-10-17T04:24:55.498Z,101320.03
2022-10-17T04:27:21.051Z,101309.28
2022-10-17T04:29:46.603Z,101310.91
2022-10-17T04:32:12.141Z,101309.28
2022-10-17T04:34:37.691Z,101299.03
2022-10-17T04:37:03.227Z,101303.72
2022-10-17T04:39:28.897Z,101307.31
2022-10-17T04:41:55.691Z,101307.31
2022-10-17T04:44:21.380Z,101317.56
2022-10-17T04:46:46.931Z,101314.81
2022-10-17T04:49:12.474Z,101318.66
2022-10-17T04:51:38.329Z,101322.25
2022-10-17T04:54:03.875Z,101335.25
2022-10-17T04:56:29.434Z,101334.19
2022-10-17T04:58:54.979Z,101344.38
2022-10-17T05:01:21.314Z,101338.03
2022-10-17T05:03:46.904Z,101336.94
2022-10-17T05:06:13.955Z,101334.19
2022-10-17T05:08:39.552Z,101331.41
2022-10-17T05:11:05.486Z,101329.47
2022-10-17T05:13:31.497Z,101339.72
2022-10-17T05:15:59.016Z,101332.50
2022-10-17T05:18:24.556Z,101334.19
2022-10-17T05:20:50.104Z,101330.56
2022-10-17T05:23:15.641Z,101335.81
2022-10-17T05:25:41.190Z,101334.19
2022-10-17T05:28:06.974Z,101333.06
2022-10-17T05:30:36.664Z,101341.34
2022-10-17T05:33:02.345Z,101348.00
2022-10-17T05:35:27.983Z,101367.09
2022-10-17T05:37:53.534Z,101366.25
2022-10-17T05:40:19.083Z,101374.56
2022-10-17T05:42:45.118Z,101370.16
2022-10-17T05:45:10.672Z,101366.53
2022-10-17T05:47:36.212Z,101370.41
2022-10-17T05:50:01.768Z,101368.19
2022-10-17T05:52:27.640Z,101371.78
2022-10-17T05:54:53.492Z,101368.47
2022-10-17T05:57:19.045Z,101376.19
2022-10-17T05:59:44.589Z,101375.38
2022-10-17T06:02:11.479Z,101374.25
2022-10-17T06:04:37.181Z,101387.28
2022-10-17T06:07:02.767Z,101379.53
2022-10-17T06:09:28.316Z,101390.88
2022-10-17T06:11:53.867Z,101383.38
2022-10-17T06:14:19.413Z,101391.69
2022-10-17T06:16:45.033Z,101390.03
2022-10-17T06:19:10.794Z,101409.16
2022-10-17T06:21:37.868Z,101407.22
2022-10-17T06:24:03.448Z,101390.59
2022-10-17T06:26:29.001Z,101393.38
2022-10-17T06:28:54.741Z,101396.16
2022-10-17T06:31:20.380Z,101382.31
2022-10-17T06:33:45.923Z,101390.31
2022-10-17T06:36:12.590Z,101395.03
2022-10-17T06:38:38.129Z,101397.50
2022-10-17T06:41:07.374Z,101409.41
2022-10-17T06:43:33.131Z,101399.19
2022-10-17T06:45:58.729Z,101405.53
2022-10-17T06:48:24.280Z,101409.13
2022-10-17T06:50:49.827Z,101414.38
2022-10-17T06:53:15.367Z,101426.28
2022-10-17T06:55:42.094Z,101424.63
2022-10-17T06:58:07.632Z,101428.50
2022-10-17T07:00:33.239Z,101431.00
2022-10-17T07:02:58.816Z,101430.16
2022-10-17T07:05:24.362Z,101430.16
2022-10-17T07:07:51.033Z,101431.00
2022-10-17T07:10:17.489Z,101427.41
2022-10-17T07:12:44.835Z,101430.16
2022-10-17T07:15:10.499Z,101435.41
2022-10-17T07:17:36.213Z,101433.75
2022-10-17T07:20:01.786Z,101438.47
2022-10-17T07:22:27.348Z,101433.75
2022-10-17T07:24:52.923Z,101436.53
2022-10-17T07:27:18.468Z,101449.53
2022-10-17T07:29:44.025Z,101451.19
2022-10-17T07:32:09.697Z,101463.09
2022-10-17T07:34:35.401Z,101457.56
2022-10-17T07:37:01.222Z,101451.19
2022-10-17T07:39:26.783Z,101457.56
2022-10-17T07:41:52.352Z,101447.31
2022-10-17T07:44:17.892Z,101438.19
2022-10-17T07:46:43.444Z,101440.94
2022-10-17T07:49:09.012Z,101444.53
2022-10-17T07:51:34.622Z,101448.16
2022-10-17T07:54:00.191Z,101461.16
2022-10-17T07:56:25.743Z,101470.31
2022-10-17T07:58:51.781Z,101475.00
2022-10-17T08:01:18.044Z,101470.31
2022-10-17T08:03:43.941Z,101478.63
2022-10-17T08:06:09.495Z,101478.63
2022-10-17T08:08:35.045Z,101488.56
2022-10-17T08:11:01.881Z,101498.81
2022-10-17T08:13:27.508Z,101504.34
2022-10-17T08:15:53.146Z,101498.00
2022-10-17T08:18:18.706Z,101501.28
2022-10-17T08:20:44.372Z,101509.00
2022-10-17T08:23:09.995Z,101497.38
2022-10-17T08:25:37.398Z,101493.81
2022-10-17T08:28:03.141Z,101492.16
2022-10-17T08:30:29.883Z,101505.75
2022-10-17T08:32:55.623Z,101517.91
2022-10-17T08:35:21.420Z,101510.72
2022-10-17T08:37:47.508Z,101522.91
2022-10-17T08:40:16.793Z,101519.84
2022-10-17T08:42:46.896Z,101529.25
2022-10-17T08:45:32.370Z,101532.03
2022-10-17T08:47:59.344Z,101538.38
2022-10-17T08:50:28.066Z,101535.38
2022-10-17T08:52:54.454Z,101530.09
2022-10-17T08:55:28.889Z,101541.16
2022-10-17T08:57:54.426Z,101538.69
2022-10-17T09:00:20.258Z,101534.78
2022-10-17T09:02:49.464Z,101543.09
2022-10-17T09:05:32.887Z,101548.63
2022-10-17T09:08:03.133Z,101548.94
2022-10-17T09:10:34.560Z,101550.59
2022-10-17T09:13:06.978Z,101555.59
2022-10-17T09:15:53.221Z,101553.06
2022-10-17T09:18:23.893Z,101547.25
2022-10-17T09:20:51.160Z,101541.44
2022-10-17T09:23:18.117Z,101552.50
2022-10-17T09:25:44.661Z,101550.56
2022-10-17T09:28:12.083Z,101562.47
2022-10-17T09:30:46.007Z,101564.69
2022-10-17T09:33:23.374Z,101568.31
2022-10-17T09:35:59.558Z,101574.38
2022-10-17T09:38:25.629Z,101575.22
2022-10-17T09:40:56.884Z,101576.31
2022-10-17T09:43:23.363Z,101578.84
2022-10-17T09:45:55.399Z,101586.31
2022-10-17T09:48:30.256Z,101591.56
2022-10-17T09:51:08.227Z,101587.13
2022-10-17T09:53:44.070Z,101590.72
2022-10-17T09:56:13.656Z,101597.09
2022-10-17T09:58:48.962Z,101611.78
2022-10-17T10:01:19.653Z,101607.34
2022-10-17T10:03:49.749Z,101601.53
2022-10-17T10:06:16.497Z,101614.53
2022-10-17T10:08:58.104Z,101613.44
2022-10-17T10:11:24.589Z,101609.53
2022-10-17T10:13:50.171Z,101605.94
2022-10-17T10:16:19.999Z,101604.00
2022-10-17T10:18:47.489Z,101614.25
2022-10-17T10:21:17.522Z,101607.63
2022-10-17T10:23:43.903Z,101610.41
2022-10-17T10:26:16.792Z,101607.91
2022-10-17T10:28:50.218Z,101610.66
2022-10-17T10:31:15.820Z,101626.72
2022-10-17T10:33:41.865Z,101627.84
2022-10-17T10:36:07.684Z,101642.22
2022-10-17T10:38:33.604Z,101658.03
2022-10-17T10:41:04.164Z,101663.56
2022-10-17T10:43:32.510Z,101664.38
2022-10-17T10:45:58.061Z,101661.63
2022-10-17T10:48:24.477Z,101667.97
2022-10-17T10:51:08.475Z,101666.03
2022-10-17T10:53:37.796Z,101669.66
2022-10-17T10:56:05.669Z,101677.97
2022-10-17T11:01:41.392Z,101657.75
2022-10-17T11:04:26.820Z,101634.75
2022-10-17T11:06:52.758Z,101623.66
2022-10-17T11:09:23.956Z,101616.47
2022-10-17T11:11:53.277Z,101625.59
2022-10-17T11:14:20.815Z,101634.75
2022-10-17T11:16:49.562Z,101641.13
2022-10-17T11:19:23.957Z,101641.13
2022-10-17T11:22:06.913Z,101643.06
2022-10-17T11:24:35.693Z,101657.75
2022-10-17T11:27:02.683Z,101664.13
2022-10-17T11:29:29.919Z,101663.31
2022-10-17T11:31:56.012Z,101668.56
2022-10-17T11:34:23.309Z,101681.56
2022-10-17T11:36:50.125Z,101686.28
2022-10-17T11:39:26.352Z,101691.53
2022-10-17T11:42:03.399Z,101683.22
2022-10-17T11:44:31.686Z,101680.47
2022-10-17T11:46:59.212Z,101685.16
2022-10-17T11:52:06.306Z,101696.25
2022-10-17T11:54:35.048Z,101691.53
2022-10-17T11:57:14.679Z,101697.06
2022-10-17T12:00:00.331Z,101695.97
2022-10-17T12:02:36.118Z,101695.97
2022-10-17T12:05:06.075Z,101702.34
2022-10-17T12:07:37.241Z,101703.44
2022-10-17T12:10:12.921Z,101706.22
2022-10-17T12:12:39.726Z,101709.81
2022-10-17T12:18:03.059Z,101701.78
2022-10-17T12:20:30.278Z,101704.28
2022-10-17T12:23:02.167Z,101702.34
2022-10-17T12:25:29.802Z,101704.00
2022-10-17T12:28:15.453Z,101704.00
2022-10-17T12:30:48.567Z,101705.97
2022-10-17T12:33:21.583Z,101710.38
2022-10-17T12:35:48.359Z,101710.63
2022-10-17T12:38:17.481Z,101709.56
2022-10-17T12:43:19.832Z,101715.94
2022-10-17T12:45:49.491Z,101709.81
2022-10-17T12:48:34.924Z,101721.72
2022-10-17T12:54:07.568Z,101717.88
2022-10-17T12:56:41.603Z,101725.34
2022-10-17T12:59:08.637Z,101731.72
2022-10-17T13:01:34.794Z,101730.59
2022-10-17T13:04:05.129Z,101728.94
2022-10-17T13:06:31.199Z,101737.25
2022-10-17T13:09:03.244Z,101740.84
2022-10-17T13:11:30.121Z,101735.31
2022-10-17T13:13:56.925Z,101749.16
2022-10-17T13:16:30.263Z,101752.75
2022-10-17T13:18:55.862Z,101753.59
2022-10-17T13:21:21.509Z,101759.97
2022-10-17T13:23:49.876Z,101756.38
2022-10-17T13:26:19.241Z,101763.56
2022-10-17T13:28:45.049Z,101760.78
2022-10-17T13:31:30.543Z,101767.44
2022-10-17T13:33:57.281Z,101764.13
2022-10-17T13:36:22.860Z,101765.78
2022-10-17T13:38:48.410Z,101770.22
2022-10-17T13:41:35.407Z,101774.94
2022-10-17T13:44:00.511Z,101779.63
2022-10-17T13:46:37.940Z,101776.88
2022-10-17T13:49:14.703Z,101780.47
2022-10-17T13:51:48.215Z,101783.22
2022-10-17T13:54:17.608Z,101780.47
2022-10-17T13:56:43.170Z,101781.28
2022-10-17T13:59:17.456Z,101789.59
2022-10-17T14:01:43.025Z,101789.59
2022-10-17T14:04:10.502Z,101790.44
2022-10-17T14:06:45.164Z,101790.44
2022-10-17T14:09:29.485Z,101790.44
2022-10-17T14:11:56.415Z,101794.91
2022-10-17T14:14:22.715Z,101795.72
2022-10-17T14:16:48.275Z,101794.91
2022-10-17T14:19:33.701Z,101795.72
2022-10-17T14:22:16.740Z,101795.72
2022-10-17T14:24:42.713Z,101793.78
2022-10-17T14:27:29.311Z,101800.44
2022-10-17T14:29:59.800Z,101814.00
2022-10-17T14:32:26.126Z,101812.34
2022-10-17T14:34:52.524Z,101811.22
2022-10-17T14:37:29.527Z,101827.03
2022-10-17T14:39:55.327Z,101830.63
2022-10-17T14:42:21.246Z,101829.78
2022-10-17T14:44:50.142Z,101840.88
2022-10-17T14:47:41.679Z,101835.06
2022-10-17T14:50:05.320Z,101855.56
2022-10-17T14:52:31.666Z,101853.91
2022-10-17T14:54:57.920Z,101850.00
2022-10-17T14:57:27.096Z,101862.22
2022-10-17T14:59:55.354Z,101860.28
2022-10-17T15:02:22.032Z,101862.22
2022-10-17T15:04:47.571Z,101865.81
2022-10-17T15:07:13.786Z,101870.53
2022-10-17T15:09:39.615Z,101868.56
2022-10-17T15:12:06.546Z,101876.06
2022-10-17T15:14:32.092Z,101870.53
2022-10-17T15:16:57.652Z,101863.88
2022-10-17T15:19:23.202Z,101855.84
2022-10-17T15:21:48.748Z,101847.53
2022-10-17T15:24:15.036Z,101864.97
2022-10-17T15:26:40.615Z,101874.38
2022-10-17T15:29:06.464Z,101872.47
2022-10-17T15:31:32.414Z,101880.78
2022-10-17T15:33:57.950Z,101893.75
2022-10-17T15:36:27.651Z,101902.94
2022-10-17T15:38:54.673Z,101908.47
2022-10-17T15:41:20.503Z,101914.25
2022-10-17T15:43:46.448Z,101911.25
2022-10-17T15:46:12.695Z,101915.09
2022-10-17T15:48:38.274Z,101919.56
2022-10-17T15:51:03.819Z,101920.38
2022-10-17T15:53:29.361Z,101918.44
2022-10-17T15:55:54.908Z,101924.00
2022-10-17T15:58:20.447Z,101932.31
2022-10-17T16:00:46.016Z,101937.84
2022-10-17T16:03:11.661Z,101932.56
2022-10-17T16:05:37.236Z,101946.16
2022-10-17T16:08:02.809Z,101938.66
2022-10-17T16:10:28.366Z,101945.31
2022-10-17T16:12:53.993Z,101943.63
2022-10-17T16:15:22.112Z,101952.53
2022-10-17T16:17:47.992Z,101954.72
2022-10-17T16:20:13.989Z,101961.13
2022-10-17T16:22:41.227Z,101967.50
2022-10-17T16:25:18.495Z,101965.78
2022-10-17T16:27:44.592Z,101976.88
2022-10-17T16:30:10.180Z,101974.97
2022-10-17T16:32:35.794Z,101972.44
2022-10-17T16:35:01.339Z,101973.28
2022-10-17T16:37:26.885Z,101966.91
2022-10-17T16:39:52.823Z,101967.72
2022-10-17T16:42:18.963Z,101962.19
2022-10-17T16:44:44.504Z,101953.88
2022-10-17T16:47:10.594Z,101943.91
2022-10-17T16:49:39.277Z,101947.50
2022-10-17T16:52:07.255Z,101945.56
2022-10-17T16:54:34.082Z,101955.81
2022-10-17T16:56:59.916Z,101979.94
2022-10-17T16:59:25.470Z,101995.44
2022-10-17T17:01:51.017Z,102007.63
2022-10-17T17:04:16.558Z,102010.41
2022-10-17T17:06:42.168Z,102024.25
2022-10-17T17:09:08.516Z,102015.09
2022-10-17T17:11:34.538Z,102008.75
2022-10-17T17:14:01.049Z,102005.13
2022-10-17T17:16:26.642Z,102008.75
2022-10-17T17:18:53.912Z,102005.97
2022-10-17T17:21:19.464Z,102009.00
2022-10-17T17:23:44.995Z,102013.44
2022-10-17T17:26:11.651Z,102010.69
2022-10-17T17:28:37.302Z,102012.63
2022-10-17T17:31:05.471Z,102015.38
2022-10-17T17:33:32.888Z,102019.00
2022-10-17T17:35:59.303Z,102027.31
2022-10-17T17:38:25.050Z,102029.25
2022-10-17T17:40:51.222Z,102028.38
2022-10-17T17:43:17.176Z,102018.41
2022-10-17T17:45:42.733Z,102016.47
2022-10-17T17:48:08.276Z,102016.47
2022-10-17T17:50:37.204Z,102023.94
2022-10-17T17:53:03.148Z,102021.19
2022-10-17T17:55:28.687Z,102027.53
2022-10-17T17:57:54.236Z,102025.88
2022-10-17T18:00:19.773Z,102025.88
2022-10-17T18:02:45.372Z,102030.59
2022-10-17T18:05:10.906Z,102038.91
2022-10-17T18:07:36.729Z,102034.19
2022-10-17T18:10:04.057Z,102040.56
2022-10-17T18:12:30.275Z,102042.50
2022-10-17T18:14:55.984Z,102045.28
2022-10-17T18:17:21.911Z,102043.63
2022-10-17T18:19:47.450Z,102044.44
2022-10-17T18:22:12.994Z,102045.56
2022-10-17T18:24:38.537Z,102055.81
2022-10-17T18:27:04.090Z,102054.97
2022-10-17T18:29:30.333Z,102064.94
2022-10-17T18:31:55.879Z,102060.50
2022-10-17T18:34:21.482Z,102060.25
2022-10-17T18:36:47.049Z,102064.13
2022-10-17T18:39:12.593Z,102062.19
2022-10-17T18:41:38.144Z,102064.13
2022-10-17T18:44:03.729Z,102066.06
2022-10-17T18:46:30.805Z,102069.66
2022-10-17T18:48:56.748Z,102068.84
2022-10-17T18:51:22.899Z,102076.28
2022-10-17T18:53:50.688Z,102075.44
2022-10-17T18:56:16.611Z,102081.81
2022-10-17T18:58:42.159Z,102085.44
2022-10-17T19:01:09.288Z,102086.53
2022-10-17T19:03:34.932Z,102084.59
2022-10-17T19:06:01.529Z,102080.16
2022-10-17T19:08:27.098Z,102080.97
2022-10-17T19:10:52.651Z,102079.03
2022-10-17T19:13:21.543Z,102074.63
2022-10-17T19:15:47.357Z,102080.97
2022-10-17T19:18:12.900Z,102082.94
2022-10-17T19:20:38.449Z,102086.53
2022-10-17T19:23:04.007Z,102080.16
2022-10-17T19:25:29.756Z,102088.47
2022-10-17T19:27:56.019Z,102092.34
2022-10-17T19:30:21.573Z,102099.53
2022-10-17T19:32:47.619Z,102098.72
2022-10-17T19:35:13.381Z,102098.72
2022-10-17T19:37:38.924Z,102099.53
2022-10-17T19:40:04.634Z,102106.19
2022-10-17T19:42:30.504Z,102101.47
2022-10-17T19:44:56.197Z,102104.25
2022-10-17T19:47:21.746Z,102097.88
2022-10-17T19:49:49.982Z,102110.91
2022-10-17T19:52:15.818Z,102104.53
2022-10-17T19:54:41.363Z,102107.31
2022-10-17T19:57:09.632Z,102103.69
2022-10-17T19:59:36.112Z,102105.59
2022-10-17T20:02:01.813Z,102100.94
2022-10-17T20:04:27.425Z,102100.94
2022-10-17T20:06:54.668Z,102097.06
2022-10-17T20:09:21.020Z,102101.75
2022-10-17T20:11:48.019Z,102097.28
2022-10-17T20:14:13.622Z,102097.28
2022-10-17T20:16:39.182Z,102100.94
2022-10-17T20:19:07.535Z,102103.69
2022-10-17T20:21:35.762Z,102100.06
2022-10-17T20:24:01.835Z,102100.06
2022-10-17T20:26:43.105Z,102105.59
2022-10-17T20:29:11.611Z,102105.59
2022-10-17T20:31:37.695Z,102118.63
2022-10-17T20:34:03.353Z,102123.09
2022-10-17T20:36:28.915Z,102126.09
2022-10-17T20:38:55.084Z,102125.00
2022-10-17T20:41:20.935Z,102124.16
2022-10-17T20:43:48.587Z,102129.72
2022-10-17T20:46:29.560Z,102132.47
2022-10-17T20:49:00.336Z,102127.75
2022-10-17T20:51:25.911Z,102128.88
2022-10-17T20:53:51.550Z,102131.66
2022-10-17T20:56:25.310Z,102119.72
2022-10-17T20:58:51.793Z,102116.97
2022-10-17T21:01:17.426Z,102123.34
2022-10-17T21:03:46.394Z,102120.84
2022-10-17T21:06:12.555Z,102111.41
2022-10-17T21:08:38.103Z,102111.41
2022-10-17T21:11:12.455Z,102107.81
2022-10-17T21:13:38.315Z,102113.38
2022-10-17T21:16:04.809Z,102104.22
2022-10-17T21:18:30.349Z,102113.38
2022-10-17T21:20:55.934Z,102119.72
2022-10-17T21:23:21.490Z,102123.34
2022-10-17T21:25:47.025Z,102120.84
2022-10-17T21:28:12.570Z,102123.59
2022-10-17T21:30:38.107Z,102137.47
2022-10-17T21:33:03.656Z,102126.38
2022-10-17T21:35:29.195Z,102127.22
2022-10-17T21:37:54.747Z,102121.66
2022-10-17T21:40:20.282Z,102133.84
2022-10-17T21:42:45.827Z,102123.59
2022-10-17T21:45:15.788Z,102128.31
2022-10-17T21:48:07.867Z,102139.41
2022-10-17T21:50:31.554Z,102134.97
2022-10-17T21:52:57.307Z,102136.63
2022-10-17T21:55:22.852Z,102136.63
2022-10-17T21:57:48.866Z,102135.78
2022-10-17T22:00:14.495Z,102144.09
2022-10-17T22:02:40.052Z,102138.56
2022-10-17T22:05:05.654Z,102135.78
2022-10-17T22:07:31.200Z,102146.03
2022-10-17T22:09:56.748Z,102140.50
2022-10-17T22:12:22.295Z,102142.41
2022-10-17T22:14:47.835Z,102153.50
2022-10-17T22:17:13.388Z,102159.03
2022-10-17T22:19:38.931Z,102155.44
2022-10-17T22:22:04.486Z,102160.97
2022-10-17T22:24:30.023Z,102165.44
2022-10-17T22:26:55.575Z,102166.25
2022-10-17T22:29:21.113Z,102167.34
2022-10-17T22:31:46.661Z,102165.69
2022-10-17T22:34:12.764Z,102167.34
2022-10-17T22:36:38.314Z,102177.59
2022-10-17T22:39:03.851Z,102174.81
2022-10-17T22:41:29.398Z,102185.91
2022-10-17T22:43:54.937Z,102189.50
2022-10-17T22:46:20.495Z,102190.59
2022-10-17T22:48:46.033Z,102185.91
2022-10-17T22:51:11.682Z,102181.47
2022-10-17T22:53:37.259Z,102186.16
2022-10-17T22:56:04.417Z,102185.91
2022-10-17T22:58:30.248Z,102188.94
2022-10-17T23:00:55.961Z,102183.13
2022-10-17T23:03:21.652Z,102176.75
2022-10-17T23:05:47.201Z,102174.00
2022-10-17T23:08:13.103Z,102174.00
2022-10-17T23:10:38.891Z,102174.00
2022-10-17T23:13:04.438Z,102166.78
2022-10-17T23:15:30.667Z,102166.78
2022-10-17T23:17:56.229Z,102163.19
2022-10-17T23:20:21.770Z,102170.66
2022-10-17T23:22:47.326Z,102177.88
2022-10-17T23:25:12.865Z,102175.09
2022-10-17T23:27:38.420Z,102182.56
2022-10-17T23:30:04.104Z,102183.41
2022-10-17T23:32:29.935Z,102190.88
2022-10-17T23:34:55.681Z,102188.94
2022-10-17T23:37:21.232Z,102192.81
2022-10-17T23:39:46.779Z,102188.94
2022-10-17T23:42:12.329Z,102185.34
2022-10-17T23:44:37.872Z,102188.09
2022-10-17T23:47:03.415Z,102177.03
2022-10-17T23:49:28.955Z,102181.75
2022-10-17T23:51:54.509Z,102177.03
2022-10-17T23:54:20.049Z,102179.81
2022-10-17T23:56:45.599Z,102180.03
2022-10-17T23:59:11.139Z,102185.59
